sensor_id;sensor_type;location;lat;lon;timestamp;P1;durP1;ratioP1;P2;durP2;ratioP2
15295;SDS011;7749;49.964;7.890;2023-08-07T00:01:53;3.77;;;1.17;;
15295;SDS011;7749;49.964;7.890;2023-08-07T00:04:21;4.03;;;1.47;;
15295;SDS011;7749;49.964;7.890;2023-08-07T00:06:48;2.63;;;1.40;;
15295;SDS011;7749;49.964;7.890;2023-08-07T00:09:16;3.80;;;1.50;;
15295;SDS011;7749;49.964;7.890;2023-08-07T00:11:43;4.07;;;1.43;;
15295;SDS011;7749;49.964;7.890;2023-08-07T00:14:11;3.93;;;1.50;;
15295;SDS011;7749;49.964;7.890;2023-08-07T00:16:38;4.80;;;1.30;;
15295;SDS011;7749;49.964;7.890;2023-08-07T00:19:06;4.57;;;1.57;;
15295;SDS011;7749;49.964;7.890;2023-08-07T00:21:33;3.43;;;1.43;;
15295;SDS011;7749;49.964;7.890;2023-08-07T00:24:02;4.90;;;1.73;;
15295;SDS011;7749;49.964;7.890;2023-08-07T00:26:30;5.80;;;1.83;;
15295;SDS011;7749;49.964;7.890;2023-08-07T00:28:59;6.10;;;1.60;;
15295;SDS011;7749;49.964;7.890;2023-08-07T00:31:26;3.33;;;1.53;;
15295;SDS011;7749;49.964;7.890;2023-08-07T00:33:58;3.13;;;1.37;;
15295;SDS011;7749;49.964;7.890;2023-08-07T00:36:27;6.27;;;1.80;;
15295;SDS011;7749;49.964;7.890;2023-08-07T00:39:01;5.23;;;1.67;;
15295;SDS011;7749;49.964;7.890;2023-08-07T00:41:32;4.27;;;1.83;;
15295;SDS011;7749;49.964;7.890;2023-08-07T00:44:00;4.73;;;1.90;;
15295;SDS011;7749;49.964;7.890;2023-08-07T00:46:27;5.17;;;1.97;;
15295;SDS011;7749;49.964;7.890;2023-08-07T00:48:56;7.13;;;2.10;;
15295;SDS011;7749;49.964;7.890;2023-08-07T00:51:24;7.80;;;1.80;;
15295;SDS011;7749;49.964;7.890;2023-08-07T00:53:52;5.57;;;1.80;;
15295;SDS011;7749;49.964;7.890;2023-08-07T00:56:19;7.37;;;2.00;;
15295;SDS011;7749;49.964;7.890;2023-08-07T00:58:48;7.87;;;2.10;;
15295;SDS011;7749;49.964;7.890;2023-08-07T01:01:16;3.43;;;1.80;;
15295;SDS011;7749;49.964;7.890;2023-08-07T01:03:44;6.17;;;2.00;;
15295;SDS011;7749;49.964;7.890;2023-08-07T01:06:12;9.57;;;2.47;;
15295;SDS011;7749;49.964;7.890;2023-08-07T01:08:39;7.93;;;2.20;;
15295;SDS011;7749;49.964;7.890;2023-08-07T01:16:20;8.17;;;2.40;;
15295;SDS011;7749;49.964;7.890;2023-08-07T01:18:53;5.13;;;2.10;;
15295;SDS011;7749;49.964;7.890;2023-08-07T01:21:23;5.10;;;2.03;;
15295;SDS011;7749;49.964;7.890;2023-08-07T01:23:50;9.47;;;2.90;;
15295;SDS011;7749;49.964;7.890;2023-08-07T01:26:19;6.20;;;2.03;;
15295;SDS011;7749;49.964;7.890;2023-08-07T01:31:39;7.93;;;2.43;;
15295;SDS011;7749;49.964;7.890;2023-08-07T01:34:08;4.83;;;2.20;;
15295;SDS011;7749;49.964;7.890;2023-08-07T01:36:37;6.30;;;2.13;;
15295;SDS011;7749;49.964;7.890;2023-08-07T01:39:06;6.40;;;2.20;;
15295;SDS011;7749;49.964;7.890;2023-08-07T01:41:35;5.43;;;2.00;;
15295;SDS011;7749;49.964;7.890;2023-08-07T01:44:03;8.27;;;1.90;;
15295;SDS011;7749;49.964;7.890;2023-08-07T01:46:31;5.23;;;2.30;;
15295;SDS011;7749;49.964;7.890;2023-08-07T01:48:58;6.37;;;2.30;;
15295;SDS011;7749;49.964;7.890;2023-08-07T01:51:26;9.63;;;2.33;;
15295;SDS011;7749;49.964;7.890;2023-08-07T01:53:53;7.80;;;2.27;;
15295;SDS011;7749;49.964;7.890;2023-08-07T01:56:21;5.63;;;2.43;;
15295;SDS011;7749;49.964;7.890;2023-08-07T01:58:49;9.20;;;2.50;;
15295;SDS011;7749;49.964;7.890;2023-08-07T02:01:16;4.80;;;2.20;;
15295;SDS011;7749;49.964;7.890;2023-08-07T02:03:43;6.50;;;2.40;;
15295;SDS011;7749;49.964;7.890;2023-08-07T02:06:11;6.47;;;2.10;;
15295;SDS011;7749;49.964;7.890;2023-08-07T02:08:38;5.10;;;2.37;;
15295;SDS011;7749;49.964;7.890;2023-08-07T02:11:06;5.90;;;2.17;;
15295;SDS011;7749;49.964;7.890;2023-08-07T02:13:33;5.17;;;2.40;;
15295;SDS011;7749;49.964;7.890;2023-08-07T02:16:01;7.63;;;2.33;;
15295;SDS011;7749;49.964;7.890;2023-08-07T02:18:28;3.67;;;1.90;;
15295;SDS011;7749;49.964;7.890;2023-08-07T02:20:55;5.50;;;2.23;;
15295;SDS011;7749;49.964;7.890;2023-08-07T02:23:23;6.43;;;2.60;;
15295;SDS011;7749;49.964;7.890;2023-08-07T02:25:51;6.77;;;2.53;;
15295;SDS011;7749;49.964;7.890;2023-08-07T02:28:18;7.13;;;2.40;;
15295;SDS011;7749;49.964;7.890;2023-08-07T02:30:46;6.60;;;2.50;;
15295;SDS011;7749;49.964;7.890;2023-08-07T02:33:15;4.80;;;1.97;;
15295;SDS011;7749;49.964;7.890;2023-08-07T02:35:43;5.20;;;2.37;;
15295;SDS011;7749;49.964;7.890;2023-08-07T02:38:10;7.13;;;2.30;;
15295;SDS011;7749;49.964;7.890;2023-08-07T02:40:37;8.80;;;2.40;;
15295;SDS011;7749;49.964;7.890;2023-08-07T02:43:05;7.77;;;2.37;;
15295;SDS011;7749;49.964;7.890;2023-08-07T02:45:33;6.73;;;2.30;;
15295;SDS011;7749;49.964;7.890;2023-08-07T02:48:01;5.03;;;2.10;;
15295;SDS011;7749;49.964;7.890;2023-08-07T02:50:29;3.30;;;2.00;;
15295;SDS011;7749;49.964;7.890;2023-08-07T02:53:00;9.13;;;2.80;;
15295;SDS011;7749;49.964;7.890;2023-08-07T02:55:28;4.03;;;1.90;;
15295;SDS011;7749;49.964;7.890;2023-08-07T02:57:55;6.50;;;2.23;;
15295;SDS011;7749;49.964;7.890;2023-08-07T03:00:22;6.47;;;2.30;;
15295;SDS011;7749;49.964;7.890;2023-08-07T03:02:50;8.47;;;2.73;;
15295;SDS011;7749;49.964;7.890;2023-08-07T03:05:17;4.17;;;2.10;;
15295;SDS011;7749;49.964;7.890;2023-08-07T03:07:45;4.87;;;2.23;;
15295;SDS011;7749;49.964;7.890;2023-08-07T03:10:12;4.97;;;1.87;;
15295;SDS011;7749;49.964;7.890;2023-08-07T03:12:40;5.60;;;2.20;;
15295;SDS011;7749;49.964;7.890;2023-08-07T03:15:08;6.17;;;2.60;;
15295;SDS011;7749;49.964;7.890;2023-08-07T03:17:35;5.07;;;2.50;;
15295;SDS011;7749;49.964;7.890;2023-08-07T03:20:03;8.13;;;2.17;;
15295;SDS011;7749;49.964;7.890;2023-08-07T03:22:31;7.20;;;2.27;;
15295;SDS011;7749;49.964;7.890;2023-08-07T03:24:58;6.90;;;2.30;;
15295;SDS011;7749;49.964;7.890;2023-08-07T03:27:26;6.70;;;2.13;;
15295;SDS011;7749;49.964;7.890;2023-08-07T03:29:53;4.60;;;1.80;;
15295;SDS011;7749;49.964;7.890;2023-08-07T03:32:21;3.47;;;2.20;;
15295;SDS011;7749;49.964;7.890;2023-08-07T03:34:48;6.60;;;1.80;;
15295;SDS011;7749;49.964;7.890;2023-08-07T03:37:15;5.80;;;2.20;;
15295;SDS011;7749;49.964;7.890;2023-08-07T03:39:43;5.43;;;2.43;;
15295;SDS011;7749;49.964;7.890;2023-08-07T03:42:14;5.77;;;1.97;;
15295;SDS011;7749;49.964;7.890;2023-08-07T03:44:42;5.43;;;1.77;;
15295;SDS011;7749;49.964;7.890;2023-08-07T03:47:09;6.97;;;2.57;;
15295;SDS011;7749;49.964;7.890;2023-08-07T03:49:37;4.33;;;2.13;;
15295;SDS011;7749;49.964;7.890;2023-08-07T03:52:04;5.93;;;2.00;;
15295;SDS011;7749;49.964;7.890;2023-08-07T03:54:32;3.67;;;1.90;;
15295;SDS011;7749;49.964;7.890;2023-08-07T03:56:59;7.87;;;2.33;;
15295;SDS011;7749;49.964;7.890;2023-08-07T03:59:27;5.57;;;2.10;;
15295;SDS011;7749;49.964;7.890;2023-08-07T04:01:54;4.43;;;2.07;;
15295;SDS011;7749;49.964;7.890;2023-08-07T04:04:22;6.80;;;2.40;;
15295;SDS011;7749;49.964;7.890;2023-08-07T04:06:49;6.27;;;2.27;;
15295;SDS011;7749;49.964;7.890;2023-08-07T04:09:17;4.63;;;2.20;;
15295;SDS011;7749;49.964;7.890;2023-08-07T04:11:44;4.23;;;1.87;;
15295;SDS011;7749;49.964;7.890;2023-08-07T04:14:12;6.63;;;2.50;;
15295;SDS011;7749;49.964;7.890;2023-08-07T04:16:39;4.93;;;2.10;;
15295;SDS011;7749;49.964;7.890;2023-08-07T04:19:06;4.03;;;1.93;;
15295;SDS011;7749;49.964;7.890;2023-08-07T04:21:34;7.43;;;2.63;;
15295;SDS011;7749;49.964;7.890;2023-08-07T04:24:02;6.47;;;2.03;;
15295;SDS011;7749;49.964;7.890;2023-08-07T04:26:37;3.40;;;1.70;;
15295;SDS011;7749;49.964;7.890;2023-08-07T04:29:05;3.37;;;1.97;;
15295;SDS011;7749;49.964;7.890;2023-08-07T04:31:34;4.73;;;2.33;;
15295;SDS011;7749;49.964;7.890;2023-08-07T04:34:01;5.97;;;2.00;;
15295;SDS011;7749;49.964;7.890;2023-08-07T04:36:29;4.17;;;2.20;;
15295;SDS011;7749;49.964;7.890;2023-08-07T04:38:56;4.90;;;2.17;;
15295;SDS011;7749;49.964;7.890;2023-08-07T04:41:24;4.50;;;2.17;;
15295;SDS011;7749;49.964;7.890;2023-08-07T04:43:51;7.30;;;2.60;;
15295;SDS011;7749;49.964;7.890;2023-08-07T04:46:19;6.07;;;2.47;;
15295;SDS011;7749;49.964;7.890;2023-08-07T04:48:46;4.13;;;2.27;;
15295;SDS011;7749;49.964;7.890;2023-08-07T04:51:15;5.90;;;2.37;;
15295;SDS011;7749;49.964;7.890;2023-08-07T04:53:42;9.07;;;2.60;;
15295;SDS011;7749;49.964;7.890;2023-08-07T04:56:10;5.00;;;2.23;;
15295;SDS011;7749;49.964;7.890;2023-08-07T04:58:37;5.17;;;1.87;;
15295;SDS011;7749;49.964;7.890;2023-08-07T05:01:05;3.80;;;2.00;;
15295;SDS011;7749;49.964;7.890;2023-08-07T05:03:33;6.33;;;2.57;;
15295;SDS011;7749;49.964;7.890;2023-08-07T05:06:02;6.87;;;2.70;;
15295;SDS011;7749;49.964;7.890;2023-08-07T05:08:29;6.00;;;2.23;;
15295;SDS011;7749;49.964;7.890;2023-08-07T05:10:57;4.63;;;2.20;;
15295;SDS011;7749;49.964;7.890;2023-08-07T05:13:24;5.40;;;2.67;;
15295;SDS011;7749;49.964;7.890;2023-08-07T05:15:52;7.97;;;2.50;;
15295;SDS011;7749;49.964;7.890;2023-08-07T05:18:19;4.83;;;2.43;;
15295;SDS011;7749;49.964;7.890;2023-08-07T05:20:47;5.73;;;2.40;;
15295;SDS011;7749;49.964;7.890;2023-08-07T05:23:14;5.37;;;2.03;;
15295;SDS011;7749;49.964;7.890;2023-08-07T05:25:44;6.23;;;2.00;;
15295;SDS011;7749;49.964;7.890;2023-08-07T05:28:32;3.40;;;1.90;;
15295;SDS011;7749;49.964;7.890;2023-08-07T05:32:26;3.37;;;2.03;;
15295;SDS011;7749;49.964;7.890;2023-08-07T05:34:55;2.90;;;1.90;;
15295;SDS011;7749;49.964;7.890;2023-08-07T05:37:22;4.30;;;1.87;;
15295;SDS011;7749;49.964;7.890;2023-08-07T05:39:50;3.20;;;1.70;;
15295;SDS011;7749;49.964;7.890;2023-08-07T05:42:17;5.50;;;2.17;;
15295;SDS011;7749;49.964;7.890;2023-08-07T05:44:45;5.27;;;2.47;;
15295;SDS011;7749;49.964;7.890;2023-08-07T05:47:12;3.77;;;1.70;;
15295;SDS011;7749;49.964;7.890;2023-08-07T05:49:40;3.87;;;1.83;;
15295;SDS011;7749;49.964;7.890;2023-08-07T05:52:08;3.63;;;1.63;;
15295;SDS011;7749;49.964;7.890;2023-08-07T05:54:35;4.60;;;1.97;;
15295;SDS011;7749;49.964;7.890;2023-08-07T05:57:03;3.53;;;1.50;;
15295;SDS011;7749;49.964;7.890;2023-08-07T05:59:30;3.37;;;1.70;;
15295;SDS011;7749;49.964;7.890;2023-08-07T06:01:58;5.17;;;1.80;;
15295;SDS011;7749;49.964;7.890;2023-08-07T06:04:26;2.23;;;1.50;;
15295;SDS011;7749;49.964;7.890;2023-08-07T06:06:54;3.03;;;1.70;;
15295;SDS011;7749;49.964;7.890;2023-08-07T06:09:21;4.17;;;1.57;;
15295;SDS011;7749;49.964;7.890;2023-08-07T06:11:49;3.03;;;1.53;;
15295;SDS011;7749;49.964;7.890;2023-08-07T06:14:16;2.93;;;1.60;;
15295;SDS011;7749;49.964;7.890;2023-08-07T06:16:43;3.13;;;1.83;;
15295;SDS011;7749;49.964;7.890;2023-08-07T06:19:11;3.03;;;1.47;;
15295;SDS011;7749;49.964;7.890;2023-08-07T06:21:55;3.90;;;1.63;;
15295;SDS011;7749;49.964;7.890;2023-08-07T06:24:24;5.40;;;1.77;;
15295;SDS011;7749;49.964;7.890;2023-08-07T06:26:52;3.33;;;1.90;;
15295;SDS011;7749;49.964;7.890;2023-08-07T06:29:20;3.30;;;1.97;;
15295;SDS011;7749;49.964;7.890;2023-08-07T06:31:47;2.53;;;1.43;;
15295;SDS011;7749;49.964;7.890;2023-08-07T06:34:15;4.60;;;1.57;;
15295;SDS011;7749;49.964;7.890;2023-08-07T06:36:42;5.17;;;2.07;;
15295;SDS011;7749;49.964;7.890;2023-08-07T06:39:10;2.87;;;1.50;;
15295;SDS011;7749;49.964;7.890;2023-08-07T06:41:37;5.23;;;1.80;;
15295;SDS011;7749;49.964;7.890;2023-08-07T06:44:05;3.17;;;1.77;;
15295;SDS011;7749;49.964;7.890;2023-08-07T06:46:33;4.37;;;1.70;;
15295;SDS011;7749;49.964;7.890;2023-08-07T06:49:00;2.23;;;1.53;;
15295;SDS011;7749;49.964;7.890;2023-08-07T06:51:29;3.23;;;1.60;;
15295;SDS011;7749;49.964;7.890;2023-08-07T06:53:57;4.57;;;2.33;;
15295;SDS011;7749;49.964;7.890;2023-08-07T06:56:24;4.67;;;2.00;;
15295;SDS011;7749;49.964;7.890;2023-08-07T06:58:51;4.77;;;1.73;;
15295;SDS011;7749;49.964;7.890;2023-08-07T07:01:19;3.87;;;2.00;;
15295;SDS011;7749;49.964;7.890;2023-08-07T07:03:46;4.80;;;1.93;;
15295;SDS011;7749;49.964;7.890;2023-08-07T07:06:19;2.73;;;1.80;;
15295;SDS011;7749;49.964;7.890;2023-08-07T07:08:47;5.47;;;1.70;;
15295;SDS011;7749;49.964;7.890;2023-08-07T07:11:15;4.30;;;2.20;;
15295;SDS011;7749;49.964;7.890;2023-08-07T07:13:42;3.60;;;1.87;;
15295;SDS011;7749;49.964;7.890;2023-08-07T07:16:10;5.07;;;1.77;;
15295;SDS011;7749;49.964;7.890;2023-08-07T07:18:40;6.37;;;2.60;;
15295;SDS011;7749;49.964;7.890;2023-08-07T07:21:09;3.50;;;1.80;;
15295;SDS011;7749;49.964;7.890;2023-08-07T07:23:36;2.60;;;1.70;;
15295;SDS011;7749;49.964;7.890;2023-08-07T07:26:04;5.00;;;2.43;;
15295;SDS011;7749;49.964;7.890;2023-08-07T07:28:31;3.80;;;2.00;;
15295;SDS011;7749;49.964;7.890;2023-08-07T07:30:59;4.00;;;2.00;;
15295;SDS011;7749;49.964;7.890;2023-08-07T07:33:27;4.83;;;1.80;;
15295;SDS011;7749;49.964;7.890;2023-08-07T07:35:54;4.23;;;1.90;;
15295;SDS011;7749;49.964;7.890;2023-08-07T07:38:22;4.50;;;2.00;;
15295;SDS011;7749;49.964;7.890;2023-08-07T07:40:49;5.23;;;2.10;;
15295;SDS011;7749;49.964;7.890;2023-08-07T07:43:17;3.47;;;1.67;;
15295;SDS011;7749;49.964;7.890;2023-08-07T07:45:44;5.90;;;2.03;;
15295;SDS011;7749;49.964;7.890;2023-08-07T07:48:12;6.07;;;2.30;;
15295;SDS011;7749;49.964;7.890;2023-08-07T07:50:40;4.17;;;2.00;;
15295;SDS011;7749;49.964;7.890;2023-08-07T07:53:08;6.47;;;2.87;;
15295;SDS011;7749;49.964;7.890;2023-08-07T07:55:35;3.73;;;2.23;;
15295;SDS011;7749;49.964;7.890;2023-08-07T07:58:04;3.77;;;1.97;;
15295;SDS011;7749;49.964;7.890;2023-08-07T08:00:33;3.70;;;1.63;;
15295;SDS011;7749;49.964;7.890;2023-08-07T08:03:00;4.47;;;2.37;;
15295;SDS011;7749;49.964;7.890;2023-08-07T08:05:28;6.53;;;1.77;;
15295;SDS011;7749;49.964;7.890;2023-08-07T08:07:55;5.67;;;2.07;;
15295;SDS011;7749;49.964;7.890;2023-08-07T08:10:23;5.47;;;1.80;;
15295;SDS011;7749;49.964;7.890;2023-08-07T08:12:50;3.43;;;1.60;;
15295;SDS011;7749;49.964;7.890;2023-08-07T08:15:18;6.13;;;2.10;;
15295;SDS011;7749;49.964;7.890;2023-08-07T08:17:45;3.97;;;1.70;;
15295;SDS011;7749;49.964;7.890;2023-08-07T08:20:13;4.93;;;1.93;;
15295;SDS011;7749;49.964;7.890;2023-08-07T08:22:42;6.23;;;1.93;;
15295;SDS011;7749;49.964;7.890;2023-08-07T08:25:10;6.50;;;1.97;;
15295;SDS011;7749;49.964;7.890;2023-08-07T08:27:38;7.10;;;1.90;;
15295;SDS011;7749;49.964;7.890;2023-08-07T08:30:06;6.07;;;1.90;;
15295;SDS011;7749;49.964;7.890;2023-08-07T08:32:35;6.63;;;2.40;;
15295;SDS011;7749;49.964;7.890;2023-08-07T08:35:03;4.50;;;2.00;;
15295;SDS011;7749;49.964;7.890;2023-08-07T08:37:30;3.47;;;1.67;;
15295;SDS011;7749;49.964;7.890;2023-08-07T08:39:58;4.40;;;1.67;;
15295;SDS011;7749;49.964;7.890;2023-08-07T08:42:26;4.33;;;2.00;;
15295;SDS011;7749;49.964;7.890;2023-08-07T08:44:55;3.73;;;1.90;;
15295;SDS011;7749;49.964;7.890;2023-08-07T08:47:24;7.60;;;2.07;;
15295;SDS011;7749;49.964;7.890;2023-08-07T08:49:54;4.93;;;1.97;;
15295;SDS011;7749;49.964;7.890;2023-08-07T08:52:30;5.17;;;1.97;;
15295;SDS011;7749;49.964;7.890;2023-08-07T08:54:59;5.23;;;2.20;;
15295;SDS011;7749;49.964;7.890;2023-08-07T08:57:28;4.43;;;1.60;;
15295;SDS011;7749;49.964;7.890;2023-08-07T08:59:56;3.83;;;2.00;;
15295;SDS011;7749;49.964;7.890;2023-08-07T09:02:24;7.47;;;1.93;;
15295;SDS011;7749;49.964;7.890;2023-08-07T09:04:52;4.33;;;1.83;;
15295;SDS011;7749;49.964;7.890;2023-08-07T09:07:19;4.83;;;2.10;;
15295;SDS011;7749;49.964;7.890;2023-08-07T09:09:47;2.80;;;1.60;;
15295;SDS011;7749;49.964;7.890;2023-08-07T09:12:19;3.33;;;1.67;;
15295;SDS011;7749;49.964;7.890;2023-08-07T09:14:56;3.37;;;1.87;;
15295;SDS011;7749;49.964;7.890;2023-08-07T09:17:27;7.60;;;2.37;;
15295;SDS011;7749;49.964;7.890;2023-08-07T09:19:56;4.47;;;2.27;;
15295;SDS011;7749;49.964;7.890;2023-08-07T09:22:24;4.47;;;1.73;;
15295;SDS011;7749;49.964;7.890;2023-08-07T09:24:52;3.27;;;1.67;;
15295;SDS011;7749;49.964;7.890;2023-08-07T09:27:19;2.77;;;1.83;;
15295;SDS011;7749;49.964;7.890;2023-08-07T09:29:48;3.47;;;2.30;;
15295;SDS011;7749;49.964;7.890;2023-08-07T09:32:15;3.70;;;2.00;;
15295;SDS011;7749;49.964;7.890;2023-08-07T09:34:45;2.57;;;1.80;;
15295;SDS011;7749;49.964;7.890;2023-08-07T09:37:12;3.57;;;1.60;;
15295;SDS011;7749;49.964;7.890;2023-08-07T09:39:40;6.83;;;1.70;;
15295;SDS011;7749;49.964;7.890;2023-08-07T09:42:17;2.60;;;1.50;;
15295;SDS011;7749;49.964;7.890;2023-08-07T09:44:44;3.13;;;1.50;;
15295;SDS011;7749;49.964;7.890;2023-08-07T09:49:42;3.33;;;1.57;;
15295;SDS011;7749;49.964;7.890;2023-08-07T09:52:10;3.13;;;2.17;;
15295;SDS011;7749;49.964;7.890;2023-08-07T09:54:42;3.22;;;1.75;;
15295;SDS011;7749;49.964;7.890;2023-08-07T09:57:10;4.13;;;1.47;;
15295;SDS011;7749;49.964;7.890;2023-08-07T09:59:37;2.80;;;1.27;;
15295;SDS011;7749;49.964;7.890;2023-08-07T10:02:05;2.63;;;1.30;;
15295;SDS011;7749;49.964;7.890;2023-08-07T10:04:33;2.67;;;1.40;;
15295;SDS011;7749;49.964;7.890;2023-08-07T10:07:01;3.05;;;1.63;;
15295;SDS011;7749;49.964;7.890;2023-08-07T10:09:29;4.75;;;1.42;;
15295;SDS011;7749;49.964;7.890;2023-08-07T10:11:58;2.53;;;1.13;;
15295;SDS011;7749;49.964;7.890;2023-08-07T10:14:27;2.05;;;1.00;;
15295;SDS011;7749;49.964;7.890;2023-08-07T10:16:55;3.42;;;1.20;;
15295;SDS011;7749;49.964;7.890;2023-08-07T10:19:23;3.22;;;1.08;;
15295;SDS011;7749;49.964;7.890;2023-08-07T10:21:50;2.88;;;1.00;;
15295;SDS011;7749;49.964;7.890;2023-08-07T10:24:19;3.83;;;1.33;;
15295;SDS011;7749;49.964;7.890;2023-08-07T10:26:47;3.35;;;1.40;;
15295;SDS011;7749;49.964;7.890;2023-08-07T10:29:17;1.52;;;1.00;;
15295;SDS011;7749;49.964;7.890;2023-08-07T10:31:48;3.00;;;1.33;;
15295;SDS011;7749;49.964;7.890;2023-08-07T10:34:17;2.35;;;1.35;;
15295;SDS011;7749;49.964;7.890;2023-08-07T10:36:46;3.80;;;1.50;;
15295;SDS011;7749;49.964;7.890;2023-08-07T10:39:14;4.32;;;1.50;;
15295;SDS011;7749;49.964;7.890;2023-08-07T10:41:46;2.85;;;1.40;;
15295;SDS011;7749;49.964;7.890;2023-08-07T10:44:21;2.63;;;1.25;;
15295;SDS011;7749;49.964;7.890;2023-08-07T10:46:51;3.17;;;1.50;;
15295;SDS011;7749;49.964;7.890;2023-08-07T10:49:37;5.13;;;1.85;;
15295;SDS011;7749;49.964;7.890;2023-08-07T10:52:09;2.17;;;1.42;;
15295;SDS011;7749;49.964;7.890;2023-08-07T10:54:59;2.78;;;1.70;;
15295;SDS011;7749;49.964;7.890;2023-08-07T10:57:26;3.08;;;1.42;;
15295;SDS011;7749;49.964;7.890;2023-08-07T11:00:02;2.75;;;1.50;;
15295;SDS011;7749;49.964;7.890;2023-08-07T11:02:36;4.47;;;1.85;;
15295;SDS011;7749;49.964;7.890;2023-08-07T11:05:07;4.43;;;1.30;;
15295;SDS011;7749;49.964;7.890;2023-08-07T11:07:36;3.28;;;1.73;;
15295;SDS011;7749;49.964;7.890;2023-08-07T11:10:08;3.38;;;1.70;;
15295;SDS011;7749;49.964;7.890;2023-08-07T11:12:39;2.60;;;1.70;;
15295;SDS011;7749;49.964;7.890;2023-08-07T11:15:07;3.30;;;1.63;;
15295;SDS011;7749;49.964;7.890;2023-08-07T11:17:40;4.13;;;1.60;;
15295;SDS011;7749;49.964;7.890;2023-08-07T11:20:08;2.83;;;1.60;;
15295;SDS011;7749;49.964;7.890;2023-08-07T11:22:37;3.22;;;1.90;;
15295;SDS011;7749;49.964;7.890;2023-08-07T11:25:05;3.90;;;2.00;;
15295;SDS011;7749;49.964;7.890;2023-08-07T11:27:36;4.22;;;1.63;;
15295;SDS011;7749;49.964;7.890;2023-08-07T11:30:04;3.70;;;1.48;;
15295;SDS011;7749;49.964;7.890;2023-08-07T11:32:32;5.20;;;1.88;;
15295;SDS011;7749;49.964;7.890;2023-08-07T11:35:00;2.03;;;1.65;;
15295;SDS011;7749;49.964;7.890;2023-08-07T11:37:30;2.67;;;1.48;;
15295;SDS011;7749;49.964;7.890;2023-08-07T11:40:00;3.25;;;1.42;;
15295;SDS011;7749;49.964;7.890;2023-08-07T11:42:29;2.83;;;1.58;;
15295;SDS011;7749;49.964;7.890;2023-08-07T11:44:57;2.10;;;1.33;;
15295;SDS011;7749;49.964;7.890;2023-08-07T11:47:24;2.42;;;1.52;;
15295;SDS011;7749;49.964;7.890;2023-08-07T11:49:52;2.78;;;1.33;;
15295;SDS011;7749;49.964;7.890;2023-08-07T11:52:20;2.55;;;1.50;;
15295;SDS011;7749;49.964;7.890;2023-08-07T11:54:49;2.80;;;1.50;;
15295;SDS011;7749;49.964;7.890;2023-08-07T11:57:19;5.13;;;1.60;;
15295;SDS011;7749;49.964;7.890;2023-08-07T11:59:48;5.10;;;1.67;;
15295;SDS011;7749;49.964;7.890;2023-08-07T12:02:24;2.35;;;1.60;;
15295;SDS011;7749;49.964;7.890;2023-08-07T12:04:56;2.33;;;1.60;;
15295;SDS011;7749;49.964;7.890;2023-08-07T12:07:24;4.55;;;1.63;;
15295;SDS011;7749;49.964;7.890;2023-08-07T12:09:55;3.17;;;1.55;;
15295;SDS011;7749;49.964;7.890;2023-08-07T12:12:22;4.07;;;1.58;;
15295;SDS011;7749;49.964;7.890;2023-08-07T12:14:54;3.83;;;1.45;;
15295;SDS011;7749;49.964;7.890;2023-08-07T12:17:21;5.47;;;1.73;;
15295;SDS011;7749;49.964;7.890;2023-08-07T12:19:49;4.00;;;1.30;;
15295;SDS011;7749;49.964;7.890;2023-08-07T12:22:19;2.42;;;1.17;;
15295;SDS011;7749;49.964;7.890;2023-08-07T12:24:47;3.95;;;1.20;;
15295;SDS011;7749;49.964;7.890;2023-08-07T12:27:15;3.15;;;1.63;;
15295;SDS011;7749;49.964;7.890;2023-08-07T12:29:42;2.08;;;1.30;;
15295;SDS011;7749;49.964;7.890;2023-08-07T12:32:10;3.13;;;2.30;;
15295;SDS011;7749;49.964;7.890;2023-08-07T12:34:37;2.70;;;1.67;;
15295;SDS011;7749;49.964;7.890;2023-08-07T12:37:24;2.70;;;1.55;;
15295;SDS011;7749;49.964;7.890;2023-08-07T12:39:52;2.22;;;1.23;;
15295;SDS011;7749;49.964;7.890;2023-08-07T12:42:22;2.75;;;1.60;;
15295;SDS011;7749;49.964;7.890;2023-08-07T12:44:51;3.55;;;1.50;;
15295;SDS011;7749;49.964;7.890;2023-08-07T12:47:18;2.83;;;1.42;;
15295;SDS011;7749;49.964;7.890;2023-08-07T12:49:46;3.75;;;1.40;;
15295;SDS011;7749;49.964;7.890;2023-08-07T12:52:14;2.75;;;1.45;;
15295;SDS011;7749;49.964;7.890;2023-08-07T12:54:42;2.47;;;1.45;;
15295;SDS011;7749;49.964;7.890;2023-08-07T12:57:09;2.33;;;1.40;;
15295;SDS011;7749;49.964;7.890;2023-08-07T12:59:37;5.05;;;1.50;;
15295;SDS011;7749;49.964;7.890;2023-08-07T13:02:04;3.50;;;1.30;;
15295;SDS011;7749;49.964;7.890;2023-08-07T13:04:32;2.40;;;1.73;;
15295;SDS011;7749;49.964;7.890;2023-08-07T13:07:00;2.95;;;1.80;;
15295;SDS011;7749;49.964;7.890;2023-08-07T13:09:28;4.53;;;1.73;;
15295;SDS011;7749;49.964;7.890;2023-08-07T13:11:57;2.22;;;1.50;;
15295;SDS011;7749;49.964;7.890;2023-08-07T13:14:25;2.33;;;1.42;;
15295;SDS011;7749;49.964;7.890;2023-08-07T13:16:52;4.13;;;1.77;;
15295;SDS011;7749;49.964;7.890;2023-08-07T13:19:21;2.63;;;1.35;;
15295;SDS011;7749;49.964;7.890;2023-08-07T13:21:48;3.53;;;1.58;;
15295;SDS011;7749;49.964;7.890;2023-08-07T13:24:16;3.33;;;1.50;;
15295;SDS011;7749;49.964;7.890;2023-08-07T13:26:44;1.70;;;1.27;;
15295;SDS011;7749;49.964;7.890;2023-08-07T13:29:12;2.35;;;1.40;;
15295;SDS011;7749;49.964;7.890;2023-08-07T13:31:40;4.00;;;1.98;;
15295;SDS011;7749;49.964;7.890;2023-08-07T13:34:08;2.38;;;1.67;;
15295;SDS011;7749;49.964;7.890;2023-08-07T13:36:37;2.33;;;1.38;;
15295;SDS011;7749;49.964;7.890;2023-08-07T13:39:05;1.90;;;1.60;;
15295;SDS011;7749;49.964;7.890;2023-08-07T13:41:33;1.73;;;1.63;;
15295;SDS011;7749;49.964;7.890;2023-08-07T13:44:00;3.72;;;2.05;;
15295;SDS011;7749;49.964;7.890;2023-08-07T13:46:28;2.33;;;1.60;;
15295;SDS011;7749;49.964;7.890;2023-08-07T13:48:55;4.18;;;1.58;;
15295;SDS011;7749;49.964;7.890;2023-08-07T13:51:23;2.70;;;1.70;;
15295;SDS011;7749;49.964;7.890;2023-08-07T13:53:50;4.13;;;1.67;;
15295;SDS011;7749;49.964;7.890;2023-08-07T13:56:19;3.45;;;1.92;;
15295;SDS011;7749;49.964;7.890;2023-08-07T13:58:47;2.33;;;1.63;;
15295;SDS011;7749;49.964;7.890;2023-08-07T14:01:15;2.55;;;1.50;;
15295;SDS011;7749;49.964;7.890;2023-08-07T14:03:42;2.55;;;1.60;;
15295;SDS011;7749;49.964;7.890;2023-08-07T14:06:10;2.78;;;1.50;;
15295;SDS011;7749;49.964;7.890;2023-08-07T14:08:37;2.97;;;1.63;;
15295;SDS011;7749;49.964;7.890;2023-08-07T14:11:05;2.45;;;1.65;;
15295;SDS011;7749;49.964;7.890;2023-08-07T14:13:33;2.60;;;1.60;;
15295;SDS011;7749;49.964;7.890;2023-08-07T14:16:00;3.28;;;2.22;;
15295;SDS011;7749;49.964;7.890;2023-08-07T14:18:28;3.85;;;1.90;;
15295;SDS011;7749;49.964;7.890;2023-08-07T14:20:55;3.30;;;2.28;;
15295;SDS011;7749;49.964;7.890;2023-08-07T14:23:29;2.45;;;1.70;;
15295;SDS011;7749;49.964;7.890;2023-08-07T14:26:00;3.63;;;1.77;;
15295;SDS011;7749;49.964;7.890;2023-08-07T14:28:28;2.17;;;1.58;;
15295;SDS011;7749;49.964;7.890;2023-08-07T14:30:58;2.38;;;1.80;;
15295;SDS011;7749;49.964;7.890;2023-08-07T14:33:28;2.28;;;1.50;;
15295;SDS011;7749;49.964;7.890;2023-08-07T14:35:56;2.47;;;1.80;;
15295;SDS011;7749;49.964;7.890;2023-08-07T14:38:23;2.85;;;1.65;;
15295;SDS011;7749;49.964;7.890;2023-08-07T14:40:51;4.80;;;1.77;;
15295;SDS011;7749;49.964;7.890;2023-08-07T14:43:18;2.58;;;1.92;;
15295;SDS011;7749;49.964;7.890;2023-08-07T14:45:46;3.33;;;1.85;;
15295;SDS011;7749;49.964;7.890;2023-08-07T14:48:13;2.75;;;1.70;;
15295;SDS011;7749;49.964;7.890;2023-08-07T14:50:41;2.83;;;1.77;;
15295;SDS011;7749;49.964;7.890;2023-08-07T14:53:09;5.70;;;1.98;;
15295;SDS011;7749;49.964;7.890;2023-08-07T14:55:36;3.10;;;1.90;;
15295;SDS011;7749;49.964;7.890;2023-08-07T14:58:04;3.22;;;1.80;;
15295;SDS011;7749;49.964;7.890;2023-08-07T15:00:31;3.05;;;1.80;;
15295;SDS011;7749;49.964;7.890;2023-08-07T15:02:59;2.70;;;1.60;;
15295;SDS011;7749;49.964;7.890;2023-08-07T15:05:29;3.30;;;1.70;;
15295;SDS011;7749;49.964;7.890;2023-08-07T15:07:56;3.15;;;1.90;;
15295;SDS011;7749;49.964;7.890;2023-08-07T15:10:26;2.47;;;1.90;;
15295;SDS011;7749;49.964;7.890;2023-08-07T15:12:54;3.33;;;1.95;;
15295;SDS011;7749;49.964;7.890;2023-08-07T15:15:22;3.15;;;1.60;;
15295;SDS011;7749;49.964;7.890;2023-08-07T15:17:51;3.53;;;1.70;;
15295;SDS011;7749;49.964;7.890;2023-08-07T15:20:19;2.45;;;1.48;;